Time;durP1;ratioP1;P1;durP2;ratioP2;P2;SDS_P1;SDS_P2;PMS_P1;PMS_P2;Temp;Humidity;BMP_temperature;BMP_pressure;BME280_temperature;BME280_humidity;BME280_pressure;Samples;Min_cycle;Max_cycle;Signal;HPM_P1;HPM_P2
2024/01/16 00:02:14;;;;;;;5.15;0.98;;;14.60;70.00;;;;;;4215301;27;20124;-46
2024/01/16 00:04:55;;;;;;;4.15;1.08;;;14.60;69.90;;;;;;4204572;28;20059;-47
2024/01/16 00:07:39;;;;;;;3.72;1.10;;;14.50;69.90;;;;;;4205991;28;20474;-44
2024/01/16 00:10:20;;;;;;;2.95;1.40;;;14.60;70.20;;;;;;4206343;28;20066;-44
2024/01/16 00:13:02;;;;;;;2.40;0.98;;;14.50;70.20;;;;;;4205954;28;20055;-48
2024/01/16 00:15:43;;;;;;;2.95;0.93;;;14.50;70.40;;;;;;4208610;27;20101;-46
2024/01/16 00:18:25;;;;;;;4.18;0.90;;;14.60;70.20;;;;;;4222391;27;20058;-47
2024/01/16 00:21:06;;;;;;;1.50;1.10;;;14.50;70.10;;;;;;4221331;27;20063;-45
2024/01/16 00:23:47;;;;;;;2.33;1.02;;;14.60;70.20;;;;;;4222644;27;20054;-45
2024/01/16 00:26:28;;;;;;;3.70;0.85;;;14.60;70.30;;;;;;4222847;27;20208;-44
2024/01/16 00:29:12;;;;;;;2.90;0.98;;;14.70;70.30;;;;;;4221780;27;20164;-47
2024/01/16 00:31:52;;;;;;;1.10;0.80;;;14.70;69.80;;;;;;4222409;27;20050;-48
2024/01/16 00:34:34;;;;;;;2.58;0.60;;;14.80;69.50;;;;;;4204477;28;20051;-44
2024/01/16 00:37:16;;;;;;;1.52;1.05;;;14.80;69.30;;;;;;4205749;28;20056;-46
2024/01/16 00:39:57;;;;;;;1.75;1.08;;;14.80;69.20;;;;;;4205361;28;20059;-46
2024/01/16 00:42:38;;;;;;;2.20;0.77;;;14.70;69.00;;;;;;4214463;27;20506;-47
2024/01/16 00:45:19;;;;;;;2.55;0.70;;;14.70;69.50;;;;;;4221653;27;20049;-48
2024/01/16 00:48:00;;;;;;;0.85;0.63;;;14.80;69.70;;;;;;4221699;27;20054;-46
2024/01/16 00:50:43;;;;;;;2.78;0.80;;;14.80;69.50;;;;;;4220972;27;20417;-48
2024/01/16 00:53:24;;;;;;;2.33;0.70;;;14.90;69.30;;;;;;4205678;28;20429;-47
2024/01/16 00:56:06;;;;;;;3.50;0.80;;;15.00;69.20;;;;;;4205948;27;20055;-50
2024/01/16 00:58:47;;;;;;;2.42;0.75;;;15.10;69.00;;;;;;4205527;28;20066;-48
2024/01/16 01:01:28;;;;;;;1.75;0.68;;;15.10;68.40;;;;;;4205266;28;20551;-47
2024/01/16 01:04:09;;;;;;;2.72;1.15;;;15.20;68.20;;;;;;4205043;28;20054;-50
2024/01/16 01:06:51;;;;;;;1.15;0.40;;;15.30;68.10;;;;;;4206240;27;20051;-48
2024/01/16 01:09:33;;;;;;;0.57;0.40;;;15.20;67.80;;;;;;4205005;28;20063;-45
2024/01/16 01:12:14;;;;;;;1.50;0.57;;;15.30;67.70;;;;;;4204270;28;20105;-47
2024/01/16 01:14:55;;;;;;;1.80;0.60;;;15.30;67.70;;;;;;4205111;28;20124;-46
2024/01/16 01:17:36;;;;;;;2.95;0.57;;;15.30;67.70;;;;;;4205395;28;20063;-45
2024/01/16 01:20:19;;;;;;;1.35;0.77;;;15.30;67.50;;;;;;4205125;28;20794;-46
2024/01/16 01:23:02;;;;;;;2.05;0.60;;;15.40;67.40;;;;;;4214108;27;20058;-46
2024/01/16 01:25:43;;;;;;;1.95;0.70;;;15.30;67.40;;;;;;4221592;27;20062;-50
2024/01/16 01:28:24;;;;;;;1.00;0.65;;;15.40;67.50;;;;;;4221583;27;20054;-48
2024/01/16 01:31:05;;;;;;;2.97;0.60;;;15.50;67.10;;;;;;4210202;28;20050;-46
2024/01/16 01:33:47;;;;;;;1.58;0.60;;;15.60;66.80;;;;;;4204783;28;20418;-46
2024/01/16 01:36:28;;;;;;;1.02;0.93;;;15.70;66.60;;;;;;4204440;28;20181;-46
2024/01/16 01:39:11;;;;;;;3.00;0.57;;;15.80;66.00;;;;;;4205240;27;20055;-49
2024/01/16 01:41:52;;;;;;;3.08;0.70;;;16.00;65.50;;;;;;4204173;28;20059;-45
2024/01/16 01:44:33;;;;;;;2.92;0.60;;;16.10;65.10;;;;;;4204301;28;20051;-47
2024/01/16 01:47:14;;;;;;;0.52;0.43;;;16.10;64.90;;;;;;4186803;28;20048;-46
2024/01/16 01:49:55;;;;;;;1.95;0.55;;;16.20;64.50;;;;;;4204175;28;20059;-46
2024/01/16 01:52:39;;;;;;;1.90;0.47;;;16.30;64.20;;;;;;4186742;28;20518;-43
2024/01/16 01:55:21;;;;;;;0.90;0.32;;;16.40;64.10;;;;;;4203738;27;20399;-44
2024/01/16 01:58:04;;;;;;;1.33;0.60;;;16.40;63.90;;;;;;4203677;28;20089;-44
2024/01/16 02:00:46;;;;;;;4.65;0.95;;;16.40;63.60;;;;;;4203631;28;20055;-47
2024/01/16 02:03:30;;;;;;;3.45;1.05;;;16.40;63.40;;;;;;4203879;28;20100;-47
2024/01/16 02:06:12;;;;;;;2.03;0.77;;;16.40;63.40;;;;;;4203989;28;20106;-45
2024/01/16 02:08:54;;;;;;;1.98;0.70;;;16.40;63.60;;;;;;4203571;28;20047;-49
2024/01/16 02:11:36;;;;;;;4.20;1.00;;;16.40;63.40;;;;;;4188173;27;20701;-46
2024/01/16 02:14:17;;;;;;;3.22;0.85;;;16.50;63.30;;;;;;4186749;28;20412;-46
2024/01/16 02:16:58;;;;;;;3.20;0.90;;;16.50;63.10;;;;;;4204402;27;20067;-50
2024/01/16 02:19:39;;;;;;;1.38;0.52;;;16.60;63.00;;;;;;4220451;27;20046;-46
2024/01/16 02:22:22;;;;;;;2.25;0.50;;;16.60;62.70;;;;;;4190962;28;20059;-61
2024/01/16 02:25:05;;;;;;;4.13;0.80;;;16.70;62.70;;;;;;4203172;28;20110;-44
2024/01/16 02:27:48;;;;;;;2.33;0.90;;;16.70;62.50;;;;;;4188224;27;20085;-44
2024/01/16 02:30:29;;;;;;;3.97;0.80;;;16.60;62.60;;;;;;4186634;27;20051;-45
2024/01/16 02:33:10;;;;;;;2.90;1.13;;;16.60;62.70;;;;;;4186648;28;20498;-44
2024/01/16 02:35:52;;;;;;;2.40;0.55;;;16.50;63.10;;;;;;4186864;28;20449;-44
2024/01/16 02:38:33;;;;;;;0.70;0.40;;;16.50;63.30;;;;;;4202056;28;20411;-44
2024/01/16 02:41:16;;;;;;;2.78;0.70;;;16.50;63.30;;;;;;4203532;28;20054;-44
2024/01/16 02:43:58;;;;;;;1.75;0.57;;;16.50;63.10;;;;;;4210543;27;20067;-44
2024/01/16 02:46:40;;;;;;;0.75;0.60;;;16.50;63.10;;;;;;4219820;27;20054;-44
2024/01/16 02:49:21;;;;;;;3.25;0.77;;;16.60;63.00;;;;;;4220284;27;20115;-44
2024/01/16 02:52:02;;;;;;;1.45;0.50;;;16.60;62.90;;;;;;4211003;27;20667;-43
2024/01/16 02:54:43;;;;;;;2.40;0.57;;;16.60;62.90;;;;;;4203864;28;20691;-43
2024/01/16 02:57:26;;;;;;;2.63;0.73;;;16.50;62.70;;;;;;4202426;28;20051;-43
2024/01/16 03:00:08;;;;;;;3.65;0.90;;;16.50;62.80;;;;;;4204867;27;20054;-44
2024/01/16 03:02:49;;;;;;;1.17;0.47;;;16.40;63.00;;;;;;4203640;27;20055;-44
2024/01/16 03:05:30;;;;;;;1.95;0.50;;;16.40;63.20;;;;;;4204024;28;20056;-43
2024/01/16 03:08:11;;;;;;;2.42;0.70;;;16.30;63.50;;;;;;4203151;28;20387;-43
2024/01/16 03:10:52;;;;;;;6.40;0.77;;;16.30;63.80;;;;;;4203552;28;20063;-44
2024/01/16 03:13:34;;;;;;;2.78;0.85;;;16.40;63.50;;;;;;4203811;28;20415;-44
2024/01/16 03:16:15;;;;;;;1.05;0.50;;;16.50;63.20;;;;;;4203842;28;20051;-46
2024/01/16 03:18:56;;;;;;;4.43;0.77;;;16.60;63.00;;;;;;4185435;28;20438;-45
2024/01/16 03:21:37;;;;;;;1.48;0.50;;;16.60;62.90;;;;;;4202462;28;20524;-45
2024/01/16 03:24:18;;;;;;;2.22;0.55;;;16.70;62.80;;;;;;4203198;28;20070;-46
2024/01/16 03:26:59;;;;;;;1.83;0.70;;;16.70;62.60;;;;;;4203103;28;20051;-47
2024/01/16 03:29:42;;;;;;;2.40;0.70;;;16.70;62.50;;;;;;4203112;28;20631;-45
2024/01/16 03:32:22;;;;;;;3.20;0.70;;;16.70;63.30;;;;;;4205877;28;20197;-43
2024/01/16 03:35:04;;;;;;;1.90;0.70;;;16.70;62.40;;;;;;4205725;28;20502;-44
2024/01/16 03:37:45;;;;;;;3.10;0.50;;;16.70;62.40;;;;;;4206674;28;20395;-44
2024/01/16 03:40:26;;;;;;;3.28;0.70;;;16.60;63.60;;;;;;4206846;28;20058;-43
2024/01/16 03:43:07;;;;;;;1.35;0.82;;;16.60;63.00;;;;;;4206238;28;20071;-50
2024/01/16 03:45:50;;;;;;;2.25;1.27;;;16.60;63.00;;;;;;4206402;28;20047;-45
2024/01/16 03:48:30;;;;;;;1.23;0.70;;;16.60;62.80;;;;;;4205790;28;20059;-44
2024/01/16 03:51:15;;;;;;;3.17;0.60;;;16.50;62.90;;;;;;4205365;28;20051;-45
2024/01/16 03:53:56;;;;;;;1.05;0.77;;;16.50;63.20;;;;;;4206452;28;20063;-43
2024/01/16 03:56:37;;;;;;;2.05;1.00;;;16.60;64.20;;;;;;4206994;28;20096;-44
2024/01/16 03:59:18;;;;;;;0.65;0.50;;;16.60;63.10;;;;;;4206314;28;20498;-43
2024/01/16 04:02:03;;;;;;;2.40;0.60;;;16.70;62.70;;;;;;4206257;27;20055;-43
2024/01/16 04:04:44;;;;;;;3.15;0.80;;;16.80;62.40;;;;;;4206205;28;20059;-44
2024/01/16 04:07:26;;;;;;;2.80;0.98;;;16.80;62.40;;;;;;4206010;28;20182;-44
2024/01/16 04:10:08;;;;;;;2.92;0.93;;;16.80;62.50;;;;;;4206021;28;20149;-45
2024/01/16 04:12:49;;;;;;;1.58;0.68;;;16.70;62.40;;;;;;4205965;28;20552;-43
2024/01/16 04:15:30;;;;;;;3.72;0.82;;;16.80;62.40;;;;;;4205978;28;20061;-43
2024/01/16 04:18:13;;;;;;;3.25;1.25;;;16.70;62.30;;;;;;4206117;28;20096;-44
2024/01/16 04:20:54;;;;;;;3.10;0.82;;;16.70;62.40;;;;;;4204254;28;20067;-44
2024/01/16 04:23:35;;;;;;;3.28;0.80;;;16.70;62.40;;;;;;4206187;28;20498;-43
2024/01/16 04:26:16;;;;;;;2.55;0.93;;;16.60;62.50;;;;;;4205152;28;20501;-43
2024/01/16 04:28:58;;;;;;;1.70;1.10;;;16.50;63.60;;;;;;4219301;27;20062;-44
2024/01/16 04:31:41;;;;;;;3.25;0.80;;;16.50;63.10;;;;;;4222408;27;20506;-46
2024/01/16 04:34:23;;;;;;;2.40;0.70;;;16.50;63.20;;;;;;4222343;27;20493;-46
2024/01/16 04:37:04;;;;;;;3.10;1.15;;;16.60;63.00;;;;;;4222573;27;20054;-45
2024/01/16 04:39:45;;;;;;;4.15;0.90;;;16.60;62.70;;;;;;4221158;27;20047;-46
2024/01/16 04:42:26;;;;;;;4.88;1.00;;;16.70;62.60;;;;;;4221124;27;20112;-45
2024/01/16 04:45:08;;;;;;;2.40;0.90;;;16.70;62.60;;;;;;4222024;27;20062;-49
2024/01/16 04:47:49;;;;;;;1.85;0.70;;;16.80;62.40;;;;;;4206483;28;20096;-46
2024/01/16 04:50:32;;;;;;;4.03;0.60;;;16.80;62.10;;;;;;4204217;27;20050;-47
2024/01/16 04:53:13;;;;;;;2.83;1.20;;;16.90;62.00;;;;;;4205420;28;20042;-47
2024/01/16 04:55:54;;;;;;;2.92;0.95;;;16.90;61.80;;;;;;4204332;28;20047;-47
2024/01/16 04:58:35;;;;;;;2.83;0.60;;;16.90;61.80;;;;;;4187676;28;20071;-47
2024/01/16 05:01:16;;;;;;;3.05;0.95;;;16.90;61.70;;;;;;4204363;28;20071;-46
2024/01/16 05:03:57;;;;;;;3.83;1.20;;;16.90;61.80;;;;;;4205230;28;20058;-48
2024/01/16 05:06:40;;;;;;;1.08;0.70;;;16.80;61.90;;;;;;4204998;28;20478;-48
2024/01/16 05:09:21;;;;;;;3.08;1.20;;;16.70;62.30;;;;;;4221429;27;20133;-47
2024/01/16 05:12:02;;;;;;;3.10;0.70;;;16.70;62.40;;;;;;4219213;27;20062;-46
2024/01/16 05:14:43;;;;;;;3.53;0.90;;;16.80;62.30;;;;;;4204945;28;20046;-50
2024/01/16 05:17:24;;;;;;;6.03;0.82;;;16.80;62.10;;;;;;4205348;28;20078;-50
2024/01/16 05:20:06;;;;;;;4.95;0.90;;;16.80;62.00;;;;;;4204527;27;20403;-47
2024/01/16 05:22:49;;;;;;;3.45;0.90;;;16.80;61.80;;;;;;4188596;28;20051;-48
2024/01/16 05:25:30;;;;;;;1.42;0.65;;;16.80;61.80;;;;;;4188003;28;20071;-48
2024/01/16 05:28:11;;;;;;;5.05;0.98;;;16.70;62.00;;;;;;4197020;27;20406;-46
2024/01/16 05:30:52;;;;;;;1.80;0.85;;;16.70;62.40;;;;;;4221803;27;20072;-49
2024/01/16 05:33:34;;;;;;;4.65;0.82;;;16.60;62.40;;;;;;4221167;27;20869;-48
2024/01/16 05:36:15;;;;;;;3.47;1.10;;;16.70;62.40;;;;;;4220531;28;20055;-50
2024/01/16 05:38:57;;;;;;;4.88;1.17;;;16.80;62.10;;;;;;4221191;27;20248;-47
2024/01/16 05:41:38;;;;;;;4.70;0.90;;;16.80;62.00;;;;;;4221996;27;20054;-48
2024/01/16 05:44:19;;;;;;;5.85;1.00;;;16.80;61.90;;;;;;4218856;27;20064;-46
2024/01/16 05:47:00;;;;;;;2.92;0.90;;;16.90;61.80;;;;;;4220635;27;20067;-48
2024/01/16 05:49:42;;;;;;;2.42;0.98;;;16.90;61.60;;;;;;4214461;27;20104;-47
2024/01/16 05:52:24;;;;;;;5.05;1.17;;;17.00;61.50;;;;;;4221161;27;20168;-46
2024/01/16 05:55:07;;;;;;;4.57;0.93;;;17.00;61.30;;;;;;4220001;27;20497;-45
2024/01/16 05:57:49;;;;;;;1.63;0.52;;;17.00;61.40;;;;;;4220934;27;20074;-45
2024/01/16 06:00:30;;;;;;;3.03;0.80;;;17.00;61.50;;;;;;4221317;27;20062;-45
2024/01/16 06:03:11;;;;;;;4.90;0.90;;;17.00;61.40;;;;;;4210360;27;20058;-44
2024/01/16 06:05:52;;;;;;;1.55;0.60;;;17.00;61.50;;;;;;4218617;27;20058;-46
2024/01/16 06:08:33;;;;;;;3.13;0.80;;;17.00;61.40;;;;;;4220538;27;20058;-43
2024/01/16 06:11:15;;;;;;;3.78;1.02;;;17.00;61.20;;;;;;4219693;27;20054;-46
2024/01/16 06:13:56;;;;;;;2.50;0.70;;;17.00;61.40;;;;;;4220712;27;20058;-45
2024/01/16 06:16:38;;;;;;;5.22;1.20;;;17.00;61.40;;;;;;4220934;27;20057;-46
2024/01/16 06:19:18;;;;;;;3.15;0.70;;;17.00;61.40;;;;;;4220405;27;20051;-45
2024/01/16 06:22:00;;;;;;;4.65;1.20;;;16.90;61.50;;;;;;4220936;27;20051;-45
2024/01/16 06:24:41;;;;;;;2.90;0.98;;;16.80;61.60;;;;;;4218360;27;20054;-47
2024/01/16 06:27:23;;;;;;;4.75;1.08;;;16.80;61.80;;;;;;4201576;27;20445;-45
2024/01/16 06:30:05;;;;;;;4.32;0.85;;;16.80;62.00;;;;;;4203124;27;20059;-43
2024/01/16 06:32:46;;;;;;;4.10;1.00;;;16.70;62.00;;;;;;4203474;27;20047;-46
2024/01/16 06:35:27;;;;;;;4.32;1.13;;;16.60;62.30;;;;;;4218922;27;20047;-47
2024/01/16 06:38:08;;;;;;;2.10;0.80;;;16.60;62.50;;;;;;4220180;27;20046;-48
2024/01/16 06:40:49;;;;;;;2.30;1.15;;;16.70;62.60;;;;;;4219722;27;20519;-44
2024/01/16 06:43:32;;;;;;;2.63;0.80;;;16.70;62.40;;;;;;4219313;27;20509;-43
2024/01/16 06:46:13;;;;;;;5.28;1.25;;;16.80;62.10;;;;;;4219996;27;20047;-45
2024/01/16 06:48:54;;;;;;;3.58;0.90;;;16.80;62.10;;;;;;4220058;27;20133;-44
2024/01/16 06:51:35;;;;;;;5.18;1.17;;;16.80;62.10;;;;;;4210260;27;20059;-42
2024/01/16 06:54:16;;;;;;;3.22;0.88;;;16.80;61.80;;;;;;4204902;28;20050;-43
2024/01/16 06:56:57;;;;;;;3.40;1.17;;;16.90;61.60;;;;;;4203352;27;20104;-43
2024/01/16 06:59:40;;;;;;;5.18;1.38;;;16.90;61.60;;;;;;4188201;28;20067;-44
2024/01/16 07:02:20;;;;;;;4.40;0.80;;;16.90;61.90;;;;;;4203115;28;20058;-45
2024/01/16 07:05:02;;;;;;;5.07;1.10;;;16.90;62.00;;;;;;4202855;28;20124;-43
2024/01/16 07:07:43;;;;;;;4.95;1.00;;;17.00;61.70;;;;;;4206138;27;20142;-45
2024/01/16 07:10:24;;;;;;;2.10;1.08;;;17.00;61.50;;;;;;4207944;27;20518;-43
2024/01/16 07:13:07;;;;;;;3.05;1.23;;;17.10;61.40;;;;;;4216744;28;20046;-44
2024/01/16 07:15:49;;;;;;;4.00;0.93;;;17.10;61.30;;;;;;4206065;27;20074;-47
2024/01/16 07:18:30;;;;;;;3.97;1.13;;;17.00;61.20;;;;;;4213478;27;20055;-44
2024/01/16 07:21:21;;;;;;;3.95;1.00;;;17.00;61.40;;;;;;4220106;27;20050;-48
2024/01/16 07:24:02;;;;;;;3.10;1.30;;;16.90;61.40;;;;;;4218541;27;20514;-48
2024/01/16 07:26:43;;;;;;;3.53;1.38;;;16.90;61.70;;;;;;4217332;27;20069;-46
2024/01/16 07:29:24;;;;;;;7.35;1.42;;;16.90;61.80;;;;;;4203134;28;20055;-46
2024/01/16 07:32:07;;;;;;;2.50;0.90;;;16.80;62.00;;;;;;4201309;28;20051;-45
2024/01/16 07:34:48;;;;;;;3.95;1.05;;;16.80;61.90;;;;;;4202659;28;20058;-44
2024/01/16 07:37:29;;;;;;;1.77;0.80;;;16.90;61.60;;;;;;4206024;27;20172;-50
2024/01/16 07:40:12;;;;;;;2.97;1.00;;;17.00;61.50;;;;;;4203937;28;20213;-41
2024/01/16 07:42:53;;;;;;;3.10;0.70;;;17.00;61.20;;;;;;4203202;28;20062;-41
2024/01/16 07:45:34;;;;;;;3.60;1.13;;;17.10;60.70;;;;;;4202630;28;20051;-44
2024/01/16 07:48:16;;;;;;;4.57;0.70;;;17.10;60.60;;;;;;4202818;28;20090;-45
2024/01/16 07:50:57;;;;;;;3.08;0.70;;;17.10;60.50;;;;;;4202966;28;20182;-44
2024/01/16 07:53:38;;;;;;;2.78;1.00;;;17.10;60.40;;;;;;4203239;28;20506;-43
2024/01/16 07:56:20;;;;;;;3.95;0.75;;;17.00;60.30;;;;;;4202817;28;20054;-44
2024/01/16 07:59:01;;;;;;;2.00;0.90;;;17.00;60.50;;;;;;4191201;28;20066;-43
2024/01/16 08:01:42;;;;;;;3.97;0.90;;;16.90;60.70;;;;;;4185862;28;20411;-44
2024/01/16 08:04:24;;;;;;;2.60;0.75;;;16.80;60.80;;;;;;4189513;28;20051;-44
2024/01/16 08:07:05;;;;;;;3.50;1.30;;;16.80;60.50;;;;;;4192757;28;20458;-44
2024/01/16 08:09:47;;;;;;;4.40;0.90;;;16.80;59.80;;;;;;4216471;27;20185;-44
2024/01/16 08:12:28;;;;;;;4.20;0.85;;;16.70;58.70;;;;;;4202509;28;20510;-43
2024/01/16 08:15:10;;;;;;;1.75;0.75;;;16.70;58.20;;;;;;4202463;28;20059;-44
2024/01/16 08:17:51;;;;;;;3.58;0.82;;;16.60;58.10;;;;;;4204785;28;20070;-43
2024/01/16 08:20:33;;;;;;;1.10;0.60;;;16.50;58.30;;;;;;4206445;28;20062;-44
2024/01/16 08:23:14;;;;;;;3.00;1.02;;;16.50;58.30;;;;;;4212082;27;20050;-43
2024/01/16 08:25:55;;;;;;;3.90;1.13;;;16.50;58.30;;;;;;4202953;27;20090;-44
2024/01/16 08:28:36;;;;;;;3.45;1.02;;;16.40;57.70;;;;;;4204624;28;20180;-44
2024/01/16 08:31:18;;;;;;;2.97;0.70;;;16.50;58.20;;;;;;4210804;27;20425;-45
2024/01/16 08:33:59;;;;;;;4.72;1.00;;;16.50;58.60;;;;;;4216641;27;20690;-43
2024/01/16 08:36:41;;;;;;;2.72;0.80;;;16.50;59.20;;;;;;4192752;28;20051;-46
2024/01/16 08:39:22;;;;;;;4.85;1.27;;;16.50;58.60;;;;;;4208147;27;20078;-46
2024/01/16 08:42:04;;;;;;;5.50;0.98;;;16.40;58.70;;;;;;4206317;27;20047;-45
2024/01/16 08:44:45;;;;;;;2.42;0.75;;;16.40;59.00;;;;;;4204960;28;20130;-46
2024/01/16 08:47:26;;;;;;;3.30;0.95;;;16.30;59.40;;;;;;4218477;27;20118;-47
2024/01/16 08:50:09;;;;;;;5.32;0.80;;;16.30;59.50;;;;;;4202501;27;20507;-45
2024/01/16 08:52:52;;;;;;;2.60;0.90;;;16.40;59.30;;;;;;4222631;27;20046;-47
2024/01/16 08:55:32;;;;;;;1.27;0.60;;;16.50;59.00;;;;;;4216281;27;20129;-44
2024/01/16 08:58:14;;;;;;;8.70;2.58;;;16.60;58.50;;;;;;4210395;28;20197;-45
2024/01/16 09:00:54;;;;;;;1.77;0.70;;;16.80;57.60;;;;;;4205495;28;20075;-47
2024/01/16 09:03:36;;;;;;;4.85;1.02;;;16.80;57.00;;;;;;4222066;27;20058;-44
2024/01/16 09:06:16;;;;;;;1.15;0.68;;;16.90;57.50;;;;;;4219147;27;20552;-44
2024/01/16 09:08:59;;;;;;;;;;;17.00;56.70;;;;;;4222557;27;20124;-44
2024/01/16 09:11:40;;;;;;;5.18;0.80;;;17.00;56.30;;;;;;4216023;27;20037;-44
2024/01/16 09:14:21;;;;;;;2.05;0.63;;;17.00;55.40;;;;;;4204976;28;20177;-44
2024/01/16 09:17:03;;;;;;;2.78;0.98;;;16.90;55.10;;;;;;4206096;27;20390;-44
2024/01/16 09:19:44;;;;;;;3.10;0.82;;;16.80;54.50;;;;;;4221730;27;21114;-44
2024/01/16 09:22:25;;;;;;;1.95;0.50;;;16.70;54.70;;;;;;4213795;27;20130;-44
2024/01/16 09:25:08;;;;;;;1.50;0.95;;;16.60;54.90;;;;;;4201730;28;20107;-44
2024/01/16 09:27:50;;;;;;;2.65;1.27;;;16.60;54.80;;;;;;4200352;28;20444;-44
2024/01/16 09:30:33;;;;;;;3.22;0.93;;;16.40;54.60;;;;;;4199693;28;20125;-44
2024/01/16 09:33:16;;;;;;;4.13;1.00;;;16.30;54.70;;;;;;4211034;28;20099;-43
2024/01/16 09:35:57;;;;;;;3.13;0.93;;;16.10;54.70;;;;;;4215399;27;20074;-42
2024/01/16 09:38:39;;;;;;;;;;;16.00;54.80;;;;;;4201262;28;20101;-45
2024/01/16 09:41:21;;;;;;;2.90;1.05;;;16.00;55.00;;;;;;4186223;28;19927;-47
2024/01/16 09:44:02;;;;;;;1.25;0.50;;;15.90;54.60;;;;;;4190582;28;20071;-44
2024/01/16 09:46:46;;;;;;;;;;;15.90;54.50;;;;;;4218742;27;20543;-43
2024/01/16 09:49:30;;;;;;;3.28;0.80;;;15.90;54.80;;;;;;4203420;27;19958;-44
2024/01/16 09:52:11;;;;;;;1.65;1.08;;;15.80;54.60;;;;;;4202559;27;20404;-44
2024/01/16 09:54:52;;;;;;;3.25;0.90;;;15.70;54.50;;;;;;4228179;27;20054;-43
2024/01/16 09:57:38;;;;;;;1.92;0.90;;;15.70;53.90;;;;;;4237953;27;20443;-43
2024/01/16 10:00:20;;;;;;;2.13;0.70;;;15.60;54.70;;;;;;4230495;27;20055;-45
2024/01/16 10:03:01;;;;;;;2.83;0.80;;;15.60;54.70;;;;;;4206959;27;20051;-43
2024/01/16 10:05:44;;;;;;;4.55;1.02;;;15.60;54.70;;;;;;4192031;27;20403;-43
2024/01/16 10:08:25;;;;;;;4.00;0.80;;;15.50;54.60;;;;;;4201106;27;20051;-48
2024/01/16 10:11:06;;;;;;;2.72;0.70;;;15.50;54.60;;;;;;4203932;27;20559;-45
2024/01/16 10:13:49;;;;;;;1.13;0.68;;;15.50;54.50;;;;;;4202847;28;20059;-44
2024/01/16 10:17:08;;;;;;;1.40;0.70;;;15.40;54.40;;;;;;4214138;27;20054;-43
2024/01/16 10:19:51;;;;;;;3.10;1.00;;;15.40;54.50;;;;;;4221095;27;20050;-43
2024/01/16 10:22:32;;;;;;;1.63;0.80;;;15.40;54.40;;;;;;4214968;27;20462;-43
2024/01/16 10:25:16;;;;;;;3.00;0.90;;;15.40;53.80;;;;;;4198930;27;20055;-44
2024/01/16 10:28:11;;;;;;;2.10;1.05;;;15.40;53.80;;;;;;4197448;27;20071;-44
2024/01/16 10:31:03;;;;;;;2.05;0.93;;;15.40;53.90;;;;;;4201382;27;20055;-43
2024/01/16 10:33:44;;;;;;;2.63;0.90;;;15.40;53.80;;;;;;4197963;28;20513;-44
2024/01/16 10:36:26;;;;;;;6.00;1.23;;;15.30;53.90;;;;;;4199063;27;20051;-43
2024/01/16 10:39:07;;;;;;;0.90;0.85;;;15.30;54.50;;;;;;4187515;28;20043;-44
2024/01/16 10:42:06;;;;;;;4.18;0.70;;;15.30;54.30;;;;;;4210075;27;20051;-44
2024/01/16 10:44:54;;;;;;;1.85;1.00;;;15.30;54.00;;;;;;4218393;27;20059;-43
2024/01/16 10:47:37;;;;;;;1.77;0.80;;;15.30;53.90;;;;;;4211239;27;20109;-44
2024/01/16 10:50:18;;;;;;;4.68;0.98;;;15.40;53.80;;;;;;4218411;27;20067;-43
2024/01/16 10:53:03;;;;;;;2.92;0.90;;;15.50;53.50;;;;;;4215525;27;20196;-43
2024/01/16 10:55:50;;;;;;;2.00;1.33;;;15.50;54.00;;;;;;4203895;28;20564;-44
2024/01/16 10:58:32;;;;;;;2.40;0.93;;;15.50;53.10;;;;;;4204061;28;20051;-44
2024/01/16 11:01:18;;;;;;;3.83;1.13;;;15.50;53.00;;;;;;4215451;27;20140;-44
2024/01/16 11:04:02;;;;;;;1.35;1.02;;;15.50;53.10;;;;;;4203502;27;20541;-43
2024/01/16 11:06:43;;;;;;;1.23;1.08;;;15.50;53.00;;;;;;4203922;28;20550;-43
2024/01/16 11:09:25;;;;;;;1.80;0.90;;;15.50;53.40;;;;;;4203617;28;20059;-43
2024/01/16 11:12:08;;;;;;;2.15;1.10;;;15.60;53.90;;;;;;4206856;27;20103;-45
2024/01/16 11:14:52;;;;;;;3.15;1.30;;;15.80;54.00;;;;;;4220472;27;20394;-43
2024/01/16 11:17:34;;;;;;;1.83;1.73;;;16.00;54.20;;;;;;4207806;27;20189;-43
2024/01/16 11:20:17;;;;;;;;;;;16.10;54.50;;;;;;4216629;27;20051;-43
2024/01/16 11:23:09;;;;;;;1.38;1.23;;;16.20;55.00;;;;;;4185671;28;20049;-43
2024/01/16 11:25:50;;;;;;;2.67;1.38;;;16.40;55.00;;;;;;4186885;28;20075;-43
2024/01/16 11:28:31;;;;;;;2.83;2.03;;;16.50;54.90;;;;;;4191126;27;20407;-43
2024/01/16 11:31:31;;;;;;;5.60;1.77;;;16.60;54.70;;;;;;4216110;27;20058;-44
2024/01/16 11:34:12;;;;;;;2.15;1.60;;;16.60;54.70;;;;;;4202446;27;20104;-44
2024/01/16 11:36:55;;;;;;;2.17;1.50;;;16.60;55.00;;;;;;4213101;27;20559;-43
2024/01/16 11:39:36;;;;;;;1.98;1.52;;;16.50;55.20;;;;;;4203336;28;20047;-43
2024/01/16 11:42:27;;;;;;;1.75;1.65;;;16.50;55.50;;;;;;4219292;27;20063;-42
2024/01/16 11:45:09;;;;;;;1.60;1.40;;;16.40;55.90;;;;;;4208141;27;20067;-43
2024/01/16 11:48:10;;;;;;;3.65;1.65;;;16.40;56.20;;;;;;4220698;27;20043;-43
2024/01/16 11:50:51;;;;;;;2.35;1.90;;;16.60;56.10;;;;;;4219571;27;20058;-43
2024/01/16 11:53:38;;;;;;;2.65;1.10;;;16.60;56.10;;;;;;4208924;27;20495;-43
2024/01/16 11:56:42;;;;;;;2.47;1.40;;;16.60;56.10;;;;;;4209724;27;20059;-43
2024/01/16 12:00:12;;;;;;;4.00;1.45;;;16.60;57.10;;;;;;4208621;27;20084;-43
2024/01/16 12:02:57;;;;;;;0.98;0.85;;;16.60;56.60;;;;;;4188855;28;20118;-43
2024/01/16 12:05:38;;;;;;;1.98;0.75;;;16.60;57.10;;;;;;4189623;28;20087;-43
2024/01/16 12:08:22;;;;;;;0.90;0.70;;;16.50;57.30;;;;;;4189501;28;20047;-42
2024/01/16 12:11:05;;;;;;;0.52;0.50;;;16.50;57.40;;;;;;4205437;28;20204;-43
2024/01/16 12:14:03;;;;;;;1.42;0.85;;;16.40;57.50;;;;;;4206240;28;20054;-43
2024/01/16 12:16:44;;;;;;;1.08;0.80;;;16.30;57.80;;;;;;4203494;28;20415;-45
2024/01/16 12:19:25;;;;;;;2.65;0.47;;;16.40;58.20;;;;;;4206400;28;20403;-45
2024/01/16 12:22:06;;;;;;;0.60;0.60;;;16.30;58.20;;;;;;4206444;28;20066;-46
2024/01/16 12:24:48;;;;;;;1.92;1.40;;;16.40;58.30;;;;;;4211109;27;20101;-44
2024/01/16 12:27:32;;;;;;;3.00;0.77;;;16.40;58.30;;;;;;4209972;27;20055;-46
2024/01/16 12:30:15;;;;;;;3.03;1.00;;;16.30;58.20;;;;;;4206086;28;20082;-43
2024/01/16 12:33:07;;;;;;;5.70;1.48;;;16.30;58.50;;;;;;4204998;28;20059;-45
2024/01/16 12:35:51;;;;;;;3.83;0.98;;;16.30;59.20;;;;;;4205840;28;20066;-44
2024/01/16 12:38:32;;;;;;;2.83;1.50;;;16.30;58.60;;;;;;4205501;28;20097;-46
2024/01/16 12:41:14;;;;;;;1.80;1.00;;;16.30;58.80;;;;;;4212415;27;20045;-45
2024/01/16 12:43:56;;;;;;;3.25;0.90;;;16.20;58.80;;;;;;4221754;27;20197;-45
2024/01/16 12:46:45;;;;;;;2.00;1.00;;;16.20;59.00;;;;;;4208387;28;20043;-46
2024/01/16 12:49:26;;;;;;;4.47;1.20;;;16.10;59.30;;;;;;4204926;28;20055;-43
2024/01/16 12:52:21;;;;;;;4.47;1.23;;;16.10;59.50;;;;;;4205446;28;20055;-47
2024/01/16 12:55:04;;;;;;;2.75;1.35;;;16.00;59.70;;;;;;4203480;28;20348;-44
2024/01/16 12:57:46;;;;;;;3.58;1.00;;;15.90;60.00;;;;;;4208108;27;20450;-43
2024/01/16 13:00:28;;;;;;;3.58;1.08;;;15.90;60.20;;;;;;4221764;27;20058;-45
2024/01/16 13:03:17;;;;;;;3.10;1.48;;;15.80;60.30;;;;;;4220914;27;20192;-44
2024/01/16 13:05:59;;;;;;;1.60;1.25;;;15.80;60.40;;;;;;4218772;27;20252;-43
2024/01/16 13:08:40;;;;;;;2.60;1.05;;;15.80;60.50;;;;;;4221285;27;20078;-44
2024/01/16 13:11:22;;;;;;;5.18;1.23;;;15.80;60.60;;;;;;4221759;27;20066;-42
2024/01/16 13:14:12;;;;;;;3.97;1.30;;;15.70;60.80;;;;;;4221857;27;20066;-44
2024/01/16 13:16:56;;;;;;;4.65;1.42;;;15.70;61.00;;;;;;4207711;27;20193;-44
2024/01/16 13:19:37;;;;;;;2.70;1.17;;;15.60;61.00;;;;;;4205076;28;20055;-43
2024/01/16 13:22:18;;;;;;;5.70;1.30;;;15.60;61.30;;;;;;4203517;28;20132;-44
2024/01/16 13:25:00;;;;;;;4.60;1.65;;;15.60;61.20;;;;;;4205660;28;20059;-42
2024/01/16 13:27:45;;;;;;;3.20;1.63;;;15.60;61.40;;;;;;4204994;28;20054;-45
2024/01/16 13:30:27;;;;;;;4.57;1.55;;;15.60;62.10;;;;;;4208634;27;20514;-47
2024/01/16 13:33:17;;;;;;;2.17;1.27;;;15.70;62.00;;;;;;4204921;28;20050;-44
2024/01/16 13:35:58;;;;;;;4.65;1.65;;;15.70;62.10;;;;;;4205774;27;20059;-44
2024/01/16 13:38:40;;;;;;;5.22;2.40;;;15.70;62.10;;;;;;4204371;28;20047;-45
2024/01/16 13:41:22;;;;;;;5.43;2.10;;;15.60;62.00;;;;;;4204556;28;20100;-46
2024/01/16 13:44:04;;;;;;;2.30;1.70;;;15.60;62.00;;;;;;4204396;28;20680;-47
2024/01/16 13:46:45;;;;;;;4.88;2.38;;;15.60;61.90;;;;;;4218629;27;20046;-48
2024/01/16 13:49:35;;;;;;;4.25;1.90;;;15.50;61.90;;;;;;4220411;27;20054;-45
2024/01/16 13:52:17;;;;;;;6.78;2.35;;;15.40;62.00;;;;;;4204029;28;20055;-44
2024/01/16 13:54:59;;;;;;;4.35;2.33;;;15.40;62.10;;;;;;4205057;28;20055;-44
2024/01/16 13:57:40;;;;;;;6.72;2.38;;;15.30;62.30;;;;;;4203064;28;20092;-46
2024/01/16 14:00:21;;;;;;;4.45;2.40;;;15.20;62.60;;;;;;4204145;28;20133;-44
2024/01/16 14:03:03;;;;;;;4.22;1.90;;;15.20;62.90;;;;;;4203035;28;20499;-43
2024/01/16 14:05:47;;;;;;;7.00;2.25;;;15.10;63.50;;;;;;4206431;27;20058;-47
2024/01/16 14:08:28;;;;;;;5.28;1.77;;;15.00;63.70;;;;;;4206042;28;20077;-48